createdAt,value
2018-11-28T00:00:51.569Z,1.50
2018-11-28T00:03:20.744Z,1.50
2018-11-28T00:05:49.617Z,1.60
2018-11-28T00:08:33.617Z,1.60
2018-11-28T00:11:02.537Z,1.70
2018-11-28T00:13:31.545Z,1.60
2018-11-28T00:16:00.445Z,1.60
2018-11-28T00:18:29.551Z,1.70
2018-11-28T00:20:58.581Z,1.70
2018-11-28T00:23:27.518Z,1.60
2018-11-28T00:25:58.802Z,1.60
2018-11-28T00:28:25.290Z,1.60
2018-11-28T00:30:54.132Z,1.50
2018-11-28T00:33:22.991Z,1.40
2018-11-28T00:35:51.887Z,1.40
2018-11-28T00:38:20.823Z,1.40
2018-11-28T00:40:51.635Z,1.40
2018-11-28T00:43:25.235Z,1.60
2018-11-28T00:50:52.982Z,1.70
2018-11-28T00:53:21.856Z,1.50
2018-11-28T00:55:50.709Z,1.40
2018-11-28T00:58:19.663Z,1.30
2018-11-28T01:00:48.788Z,1.40
2018-11-28T01:03:17.772Z,1.30
2018-11-28T01:05:46.712Z,1.20
2018-11-28T01:08:16.791Z,1.20
2018-11-28T01:10:45.835Z,1.20
2018-11-28T01:13:14.776Z,1.20
2018-11-28T01:15:43.588Z,1.20
2018-11-28T01:18:12.514Z,1.20
2018-11-28T01:20:41.410Z,1.40
2018-11-28T01:23:10.308Z,1.60
2018-11-28T01:25:39.206Z,1.70
2018-11-28T01:28:08.069Z,1.70
2018-11-28T01:35:37.177Z,1.80
2018-11-28T01:38:06.214Z,1.80
2018-11-28T01:40:35.072Z,1.80
2018-11-28T01:43:04.000Z,1.80
2018-11-28T01:45:32.907Z,1.80
2018-11-28T01:48:01.839Z,1.80
2018-11-28T01:50:30.821Z,1.80
2018-11-28T01:52:59.758Z,1.80
2018-11-28T01:55:28.694Z,1.80
2018-11-28T01:57:57.601Z,1.90
2018-11-28T02:00:27.120Z,1.90
2018-11-28T02:02:58.171Z,1.90
2018-11-28T02:05:27.163Z,1.90
2018-11-28T02:07:56.092Z,1.90
2018-11-28T02:10:24.964Z,1.90
2018-11-28T02:12:57.955Z,1.90
2018-11-28T02:15:28.185Z,1.90
2018-11-28T02:17:57.796Z,1.80
2018-11-28T02:20:26.712Z,1.90
2018-11-28T02:22:55.689Z,1.90
2018-11-28T02:30:25.631Z,1.90
2018-11-28T02:32:54.582Z,2.00
2018-11-28T02:35:23.688Z,2.10
2018-11-28T02:44:59.688Z,2.40
2018-11-28T02:50:37.588Z,2.40
2018-11-28T02:56:51.093Z,2.40
2018-11-28T03:14:51.903Z,2.40
2018-11-28T03:17:25.817Z,2.40
2018-11-28T03:19:54.751Z,2.40
2018-11-28T03:22:23.610Z,2.40
2018-11-28T03:24:52.460Z,2.40
2018-11-28T03:27:22.243Z,2.50
2018-11-28T03:29:51.101Z,2.40
2018-11-28T03:32:19.966Z,2.30
2018-11-28T03:34:48.790Z,2.30
2018-11-28T03:37:17.648Z,2.20
2018-11-28T03:39:46.590Z,2.20
2018-11-28T03:42:15.575Z,2.20
2018-11-28T03:44:44.535Z,2.10
2018-11-28T03:47:13.387Z,2.00
2018-11-28T03:49:43.359Z,1.90
2018-11-28T03:52:12.182Z,2.00
2018-11-28T03:54:41.048Z,1.90
2018-11-28T03:57:09.917Z,1.80
2018-11-28T03:59:38.780Z,1.70
2018-11-28T04:02:07.546Z,1.70
2018-11-28T04:04:37.159Z,1.70
2018-11-28T04:07:05.553Z,1.70
2018-11-28T04:09:34.488Z,1.70
2018-11-28T04:12:04.196Z,1.70
2018-11-28T04:14:33.101Z,1.70
2018-11-28T04:17:02.009Z,1.70
2018-11-28T04:19:30.934Z,1.80
2018-11-28T04:21:59.737Z,1.80
2018-11-28T04:24:28.576Z,1.80
2018-11-28T04:26:57.458Z,1.80
2018-11-28T04:29:26.349Z,1.80
2018-11-28T04:31:55.339Z,1.80
2018-11-28T04:34:24.182Z,1.70
2018-11-28T04:36:53.124Z,1.70
2018-11-28T04:39:21.986Z,1.70
2018-11-28T04:41:50.805Z,1.90
2018-11-28T04:44:19.640Z,1.90
2018-11-28T04:46:48.547Z,2.00
2018-11-28T04:49:17.326Z,2.20
2018-11-28T04:51:46.176Z,2.30
2018-11-28T04:54:15.021Z,2.40
2018-11-28T04:56:43.855Z,2.50
2018-11-28T04:59:12.711Z,2.60
2018-11-28T05:01:41.600Z,2.60
2018-11-28T05:04:10.529Z,2.50
2018-11-28T05:07:43.296Z,2.40
2018-11-28T05:10:14.039Z,2.50
2018-11-28T05:12:42.949Z,2.40
2018-11-28T05:15:19.319Z,2.40
2018-11-28T05:17:49.938Z,2.50
2018-11-28T05:20:25.647Z,2.40
2018-11-28T05:22:54.662Z,2.50
2018-11-28T05:25:25.330Z,2.60
2018-11-28T05:27:57.142Z,2.60
2018-11-28T05:30:27.204Z,2.80
2018-11-28T05:32:56.234Z,4.60
2018-11-28T05:35:36.046Z,2.90
2018-11-28T05:38:14.293Z,3.10
2018-11-28T05:40:43.866Z,3.20
2018-11-28T05:43:12.775Z,3.30
2018-11-28T05:45:41.645Z,3.30
2018-11-28T05:48:10.534Z,3.20
2018-11-28T05:50:39.364Z,3.30
2018-11-28T05:53:09.160Z,3.40
2018-11-28T05:55:39.025Z,3.50
2018-11-28T05:58:07.928Z,3.50
2018-11-28T06:00:37.703Z,3.50
2018-11-28T06:03:07.920Z,3.60
2018-11-28T06:05:36.768Z,3.70
2018-11-28T06:08:06.432Z,3.60
2018-11-28T06:10:35.361Z,3.70
2018-11-28T06:13:04.117Z,3.80
2018-11-28T06:15:33.038Z,3.80
2018-11-28T06:18:01.937Z,3.80
2018-11-28T06:20:30.787Z,3.90
2018-11-28T06:27:58.935Z,4.00
2018-11-28T06:30:27.716Z,4.00
2018-11-28T06:32:56.531Z,4.10
2018-11-28T06:35:25.498Z,4.10
2018-11-28T06:37:54.548Z,4.10
2018-11-28T06:40:24.391Z,4.00
2018-11-28T06:42:52.470Z,4.10
2018-11-28T06:45:22.106Z,4.10
2018-11-28T06:47:51.052Z,4.20
2018-11-28T06:50:21.119Z,4.10
2018-11-28T06:52:51.123Z,4.10
2018-11-28T06:55:21.109Z,4.20
2018-11-28T06:57:49.969Z,4.20
2018-11-28T07:00:19.817Z,4.20
2018-11-28T07:02:51.074Z,4.30
2018-11-28T07:05:20.335Z,4.30
2018-11-28T07:07:49.340Z,4.30
2018-11-28T07:10:19.279Z,4.30
2018-11-28T07:12:48.303Z,4.20
2018-11-28T07:15:19.584Z,4.30
2018-11-28T07:17:48.676Z,4.40
2018-11-28T07:20:17.732Z,4.40
2018-11-28T07:22:46.691Z,4.40
2018-11-28T07:25:17.400Z,4.50
2018-11-28T07:27:47.163Z,4.40
2018-11-28T07:30:19.862Z,4.50
2018-11-28T07:32:51.112Z,4.60
2018-11-28T07:35:20.434Z,4.60
2018-11-28T07:37:49.367Z,4.70
2018-11-28T07:40:19.568Z,4.70
2018-11-28T07:42:51.688Z,4.80
2018-11-28T07:45:20.532Z,4.70
2018-11-28T07:47:49.418Z,4.80
2018-11-28T07:50:18.210Z,4.80
2018-11-28T07:52:47.109Z,4.80
2018-11-28T08:00:15.776Z,4.90
2018-11-28T08:02:44.820Z,4.90
2018-11-28T08:05:13.742Z,4.90
2018-11-28T08:07:42.614Z,5.00
2018-11-28T08:10:16.969Z,5.10
2018-11-28T08:12:46.040Z,5.10
2018-11-28T08:15:14.909Z,5.10
2018-11-28T08:17:44.028Z,5.10
2018-11-28T08:20:12.898Z,5.20
2018-11-28T08:22:42.265Z,5.20
2018-11-28T08:25:12.843Z,5.20
2018-11-28T08:27:41.844Z,5.30
2018-11-28T08:30:16.606Z,5.30
2018-11-28T08:32:45.485Z,5.40
2018-11-28T08:35:14.481Z,5.40
2018-11-28T08:37:43.429Z,5.40
2018-11-28T08:40:16.698Z,5.50
2018-11-28T08:42:45.654Z,5.50
2018-11-28T08:45:15.632Z,5.60
2018-11-28T08:47:45.555Z,5.70
2018-11-28T08:50:20.540Z,5.80
2018-11-28T08:52:49.490Z,5.90
2018-11-28T08:55:18.521Z,6.00
2018-11-28T08:57:47.346Z,6.10
2018-11-28T09:00:20.326Z,6.10
2018-11-28T09:02:50.459Z,6.10
2018-11-28T09:05:19.817Z,6.20
2018-11-28T09:07:48.630Z,6.20
2018-11-28T09:10:18.275Z,6.40
2018-11-28T09:12:47.945Z,6.60
2018-11-28T09:15:23.117Z,6.70
2018-11-28T09:17:54.591Z,6.90
2018-11-28T09:20:23.923Z,6.80
2018-11-28T09:22:52.860Z,6.80
2018-11-28T09:25:22.056Z,6.70
2018-11-28T09:27:53.047Z,6.70
2018-11-28T09:30:21.949Z,6.70
2018-11-28T09:32:51.491Z,6.70
2018-11-28T09:35:20.490Z,6.60
2018-11-28T09:37:49.392Z,6.70
2018-11-28T09:40:21.919Z,6.70
2018-11-28T09:43:54.748Z,6.60
2018-11-28T09:46:23.585Z,6.70
2018-11-28T09:48:54.123Z,6.70
2018-11-28T09:51:23.095Z,6.80
2018-11-28T09:53:52.161Z,6.90
2018-11-28T09:56:21.092Z,6.90
2018-11-28T09:58:49.983Z,6.90
2018-11-28T10:01:18.825Z,6.90
2018-11-28T10:03:47.752Z,6.90
2018-11-28T10:06:16.667Z,6.90
2018-11-28T10:08:45.851Z,6.90
2018-11-28T10:11:16.648Z,6.90
2018-11-28T10:13:45.812Z,6.90
2018-11-28T10:16:15.342Z,6.90
2018-11-28T10:18:44.376Z,7.00
2018-11-28T10:21:13.479Z,6.90
2018-11-28T10:23:42.385Z,7.00
2018-11-28T10:26:11.403Z,7.10
2018-11-28T10:28:40.540Z,7.10
2018-11-28T10:31:09.523Z,7.20
2018-11-28T10:33:38.572Z,7.20
2018-11-28T10:36:07.534Z,7.30
2018-11-28T10:38:37.389Z,7.40
2018-11-28T10:41:06.638Z,7.50
2018-11-28T10:43:35.708Z,7.50
2018-11-28T10:46:04.725Z,7.40
2018-11-28T10:48:33.663Z,7.40
2018-11-28T10:51:02.548Z,7.50
2018-11-28T10:53:31.617Z,7.50
2018-11-28T10:56:00.611Z,7.50
2018-11-28T10:58:29.611Z,7.50
2018-11-28T11:03:13.618Z,7.60
2018-11-28T11:05:48.069Z,7.50
2018-11-28T11:08:23.020Z,7.50
2018-11-28T11:10:57.083Z,7.50
2018-11-28T11:13:31.846Z,7.50
2018-11-28T11:16:00.781Z,7.60
2018-11-28T11:18:29.824Z,7.70
2018-11-28T11:20:58.872Z,7.80
2018-11-28T11:23:27.850Z,7.80
2018-11-28T11:25:56.802Z,7.80
2018-11-28T11:28:26.005Z,7.80
2018-11-28T11:30:55.107Z,7.80
2018-11-28T11:38:23.451Z,7.80
2018-11-28T11:40:52.584Z,7.80
2018-11-28T11:43:21.515Z,7.80
2018-11-28T11:45:50.481Z,7.90
2018-11-28T11:48:19.594Z,8.00
2018-11-28T11:50:48.615Z,8.10
2018-11-28T11:53:17.462Z,8.10
2018-11-28T11:55:47.528Z,8.10
2018-11-28T11:58:16.487Z,8.20
2018-11-28T12:00:46.869Z,8.20
2018-11-28T12:03:16.028Z,8.20
2018-11-28T12:05:48.875Z,8.20
2018-11-28T12:08:17.921Z,8.20
2018-11-28T12:10:47.193Z,8.30
2018-11-28T12:13:18.128Z,8.30
2018-11-28T12:15:47.021Z,8.30
2018-11-28T12:18:16.080Z,8.30
2018-11-28T12:20:51.415Z,8.40
2018-11-28T12:23:20.350Z,8.40
2018-11-28T12:25:49.495Z,8.40
2018-11-28T12:28:18.301Z,8.40
2018-11-28T12:30:47.224Z,8.40
2018-11-28T12:33:16.111Z,8.50
2018-11-28T12:35:44.897Z,8.40
2018-11-28T12:38:13.777Z,8.50
2018-11-28T12:40:42.639Z,8.50
2018-11-28T12:43:11.537Z,8.60
2018-11-28T12:45:43.183Z,8.60
2018-11-28T12:48:12.070Z,8.70
2018-11-28T12:50:40.999Z,8.70
2018-11-28T12:53:11.507Z,8.70
2018-11-28T12:55:40.399Z,8.70
2018-11-28T12:58:11.841Z,8.70
2018-11-28T13:00:40.708Z,8.80
2018-11-28T13:03:10.990Z,8.70
2018-11-28T13:05:41.146Z,8.70
2018-11-28T13:08:10.167Z,8.70
2018-11-28T13:10:40.222Z,8.70
2018-11-28T13:13:10.282Z,8.60
2018-11-28T13:15:39.670Z,8.60
2018-11-28T13:18:10.596Z,8.60
2018-11-28T13:20:40.954Z,8.60
2018-11-28T13:23:10.997Z,8.60
2018-11-28T13:25:41.185Z,8.60
2018-11-28T13:28:10.159Z,8.70
2018-11-28T13:30:39.307Z,8.70
2018-11-28T13:33:08.846Z,8.70
2018-11-28T13:35:37.754Z,8.60
2018-11-28T13:38:11.928Z,8.70
2018-11-28T13:40:41.333Z,8.70
2018-11-28T13:43:10.225Z,8.60
2018-11-28T13:45:42.855Z,8.60
2018-11-28T13:48:12.937Z,8.50
2018-11-28T13:50:41.852Z,8.60
2018-11-28T13:53:13.460Z,8.60
2018-11-28T13:55:45.469Z,8.50
2018-11-28T13:58:16.632Z,8.50
2018-11-28T14:00:45.599Z,8.50
2018-11-28T14:03:14.751Z,8.40
2018-11-28T14:05:43.711Z,8.40
2018-11-28T14:08:12.600Z,8.30
2018-11-28T14:10:41.681Z,8.30
2018-11-28T14:13:10.804Z,8.30
2018-11-28T14:15:39.667Z,8.20
2018-11-28T14:18:15.940Z,8.20
2018-11-28T14:20:44.956Z,8.20
2018-11-28T14:23:16.104Z,8.20
2018-11-28T14:25:46.181Z,8.20
2018-11-28T14:28:17.832Z,8.20
2018-11-28T14:30:47.859Z,8.10
2018-11-28T14:33:16.846Z,8.10
2018-11-28T14:35:45.962Z,8.10
2018-11-28T14:38:15.095Z,8.00
2018-11-28T14:40:44.423Z,8.00
2018-11-28T14:43:15.029Z,8.00
2018-11-28T14:45:44.458Z,8.00
2018-11-28T14:48:13.287Z,8.00
2018-11-28T14:50:42.178Z,8.10
2018-11-28T14:53:11.175Z,8.00
2018-11-28T14:55:40.844Z,8.00
2018-11-28T14:58:11.072Z,8.00
2018-11-28T15:00:40.250Z,8.00
2018-11-28T15:03:12.646Z,8.00
2018-11-28T15:05:51.694Z,8.00
2018-11-28T15:08:20.716Z,8.00
2018-11-28T15:10:55.864Z,8.00
2018-11-28T15:13:26.763Z,8.00
2018-11-28T15:15:55.563Z,8.00
2018-11-28T15:18:24.466Z,7.90
2018-11-28T15:20:53.378Z,7.90
2018-11-28T15:23:22.288Z,7.90
2018-11-28T15:25:51.299Z,7.80
2018-11-28T15:28:20.151Z,7.80
2018-11-28T15:30:49.070Z,7.80
2018-11-28T15:33:18.003Z,7.80
2018-11-28T15:35:47.119Z,7.80
2018-11-28T15:38:16.054Z,7.80
2018-11-28T15:40:44.929Z,7.80
2018-11-28T15:43:13.989Z,7.80
2018-11-28T15:45:42.931Z,7.80
2018-11-28T15:48:11.859Z,7.70
2018-11-28T15:50:40.798Z,7.60
2018-11-28T15:53:09.913Z,7.70
2018-11-28T15:55:38.847Z,7.80
2018-11-28T15:58:07.712Z,7.70
2018-11-28T16:00:36.613Z,7.70
2018-11-28T16:03:05.829Z,7.70
2018-11-28T16:05:34.640Z,7.70
2018-11-28T16:08:07.396Z,7.70
2018-11-28T16:10:42.113Z,7.70
2018-11-28T16:13:12.963Z,7.70
2018-11-28T16:15:57.728Z,7.70
2018-11-28T16:18:26.621Z,7.70
2018-11-28T16:20:56.756Z,7.60
2018-11-28T16:23:25.717Z,7.70
2018-11-28T16:25:54.696Z,7.70
2018-11-28T16:28:25.351Z,7.80
2018-11-28T16:30:54.251Z,7.70
2018-11-28T16:33:23.183Z,7.70
2018-11-28T16:35:52.169Z,7.70
2018-11-28T16:38:21.213Z,7.60
2018-11-28T16:40:50.194Z,7.70
2018-11-28T16:43:19.245Z,7.70
2018-11-28T16:45:48.185Z,7.60
2018-11-28T16:48:17.089Z,7.70
2018-11-28T16:50:46.089Z,7.70
2018-11-28T16:53:14.929Z,7.60
2018-11-28T16:55:43.834Z,7.60
2018-11-28T16:58:12.732Z,7.70
2018-11-28T17:00:43.328Z,7.70
2018-11-28T17:03:12.145Z,7.60
2018-11-28T17:05:41.024Z,7.60
2018-11-28T17:08:10.155Z,7.60
2018-11-28T17:10:39.060Z,7.60
2018-11-28T17:13:08.052Z,7.50
2018-11-28T17:15:37.020Z,7.50
2018-11-28T17:18:07.238Z,7.40
2018-11-28T17:20:38.720Z,7.30
2018-11-28T17:23:07.625Z,7.30
2018-11-28T17:25:38.144Z,7.30
2018-11-28T17:28:07.128Z,7.30
2018-11-28T17:30:36.521Z,7.10
2018-11-28T17:33:05.917Z,7.00
2018-11-28T17:35:34.977Z,6.80
2018-11-28T17:38:04.060Z,6.60
2018-11-28T17:40:33.009Z,6.50
2018-11-28T17:43:01.933Z,6.50
2018-11-28T17:45:32.169Z,6.40
2018-11-28T17:48:01.113Z,6.40
2018-11-28T17:50:30.060Z,6.40
2018-11-28T17:53:07.623Z,6.40
2018-11-28T18:00:42.462Z,6.40
2018-11-28T18:03:11.397Z,6.30
2018-11-28T18:05:41.355Z,6.40
2018-11-28T18:08:10.613Z,6.40
2018-11-28T18:10:39.487Z,6.40
2018-11-28T18:13:10.218Z,6.40
2018-11-28T18:15:40.222Z,6.40
2018-11-28T18:18:10.935Z,6.40
2018-11-28T18:20:39.845Z,6.40
2018-11-28T18:23:09.697Z,6.40
2018-11-28T18:25:39.323Z,6.40
2018-11-28T18:28:11.891Z,6.50
2018-11-28T18:30:40.758Z,6.40
2018-11-28T18:33:12.116Z,6.50
2018-11-28T18:35:42.266Z,6.50
2018-11-28T18:38:11.387Z,6.50
2018-11-28T18:40:40.455Z,6.50
2018-11-28T18:43:10.490Z,6.50
2018-11-28T18:45:41.074Z,6.50
2018-11-28T18:48:09.938Z,6.50
2018-11-28T18:50:40.052Z,6.50
2018-11-28T18:53:09.043Z,6.50
2018-11-28T18:55:37.989Z,6.50
2018-11-28T18:58:08.288Z,6.40
2018-11-28T19:00:37.241Z,6.40
2018-11-28T19:03:07.263Z,6.30
2018-11-28T19:05:37.163Z,6.40
2018-11-28T19:08:07.033Z,6.30
2018-11-28T19:10:35.956Z,6.40
2018-11-28T19:13:05.000Z,6.50
2018-11-28T19:15:34.065Z,6.50
2018-11-28T19:18:02.984Z,6.60
2018-11-28T19:20:31.846Z,6.60
2018-11-28T19:23:00.809Z,6.60
2018-11-28T19:25:29.988Z,6.50
2018-11-28T19:27:58.964Z,6.50
2018-11-28T19:30:31.376Z,6.60
2018-11-28T19:38:14.848Z,6.50
2018-11-28T19:40:50.581Z,6.70
2018-11-28T19:43:19.524Z,6.70
2018-11-28T19:45:48.727Z,6.60
2018-11-28T19:48:18.457Z,6.60
2018-11-28T19:50:47.316Z,6.70
2018-11-28T19:53:16.310Z,6.80
2018-11-28T19:55:45.213Z,6.90
2018-11-28T19:58:14.116Z,6.90
2018-11-28T20:00:44.393Z,6.90
2018-11-28T20:03:13.391Z,6.80
2018-11-28T20:05:42.287Z,6.90
2018-11-28T20:08:11.169Z,6.90
2018-11-28T20:10:40.043Z,6.80
2018-11-28T20:13:09.838Z,6.90
2018-11-28T20:20:39.338Z,7.00
2018-11-28T20:23:08.697Z,6.90
2018-11-28T20:25:37.564Z,7.00
2018-11-28T20:28:07.999Z,7.00
2018-11-28T20:30:40.237Z,7.00
2018-11-28T20:33:09.985Z,7.10
2018-11-28T20:35:39.689Z,7.00
2018-11-28T20:38:12.230Z,7.10
2018-11-28T20:40:41.241Z,7.20
2018-11-28T20:43:10.097Z,7.20
2018-11-28T20:45:39.088Z,7.20
2018-11-28T20:48:08.560Z,7.20
2018-11-28T20:50:37.442Z,7.10
2018-11-28T20:53:11.789Z,7.10
2018-11-28T20:55:40.750Z,7.10
2018-11-28T20:58:09.653Z,7.00
2018-11-28T21:00:38.650Z,7.10
2018-11-28T21:03:07.749Z,7.10
2018-11-28T21:05:36.794Z,7.10
2018-11-28T21:08:07.335Z,7.10
2018-11-28T21:10:39.673Z,7.20
2018-11-28T21:13:12.318Z,7.10
2018-11-28T21:15:41.902Z,7.20
2018-11-28T21:18:10.904Z,7.10
2018-11-28T21:20:41.132Z,7.20
2018-11-28T21:23:14.230Z,7.20
2018-11-28T21:25:43.326Z,7.20
2018-11-28T21:28:12.175Z,7.30
2018-11-28T21:30:41.168Z,7.30
2018-11-28T21:33:12.372Z,7.30
2018-11-28T21:35:44.472Z,7.30
2018-11-28T21:38:13.360Z,7.30
2018-11-28T21:40:42.252Z,7.40
2018-11-28T21:43:11.136Z,7.40
2018-11-28T21:45:40.115Z,7.40
2018-11-28T21:48:09.004Z,7.40
2018-11-28T21:50:37.955Z,7.40
2018-11-28T21:53:08.785Z,7.40
2018-11-28T21:55:37.833Z,7.40
2018-11-28T22:03:13.058Z,7.40
2018-11-28T22:05:42.108Z,7.50
2018-11-28T22:08:11.036Z,7.60
2018-11-28T22:10:40.218Z,7.60
2018-11-28T22:13:09.216Z,7.60
2018-11-28T22:15:38.129Z,7.60
2018-11-28T22:18:07.166Z,7.60
2018-11-28T22:20:37.097Z,7.60
2018-11-28T22:23:06.095Z,7.60
2018-11-28T22:25:35.262Z,7.70
2018-11-28T22:28:04.783Z,7.70
2018-11-28T22:30:33.697Z,7.70
2018-11-28T22:33:02.606Z,7.70
2018-11-28T22:35:31.578Z,7.70
2018-11-28T22:38:00.421Z,7.70
2018-11-28T22:40:30.463Z,7.80
2018-11-28T22:42:59.527Z,7.70
2018-11-28T22:45:31.975Z,7.70
2018-11-28T22:48:00.965Z,7.70
2018-11-28T22:50:29.928Z,7.70
2018-11-28T22:52:59.857Z,7.70
2018-11-28T22:55:28.732Z,7.70
2018-11-28T22:57:57.739Z,7.70
2018-11-28T23:00:32.571Z,7.70
2018-11-28T23:03:05.749Z,7.70
2018-11-28T23:05:41.754Z,7.70
2018-11-28T23:08:12.752Z,7.70
2018-11-28T23:10:48.630Z,7.80
2018-11-28T23:13:19.207Z,7.80
2018-11-28T23:15:48.048Z,7.80
2018-11-28T23:18:18.280Z,7.80
2018-11-28T23:20:47.191Z,7.90
2018-11-28T23:23:16.171Z,7.90
2018-11-28T23:25:45.094Z,7.60
2018-11-28T23:28:14.051Z,7.80
2018-11-28T23:30:42.921Z,7.80
2018-11-28T23:33:16.067Z,7.80
2018-11-28T23:35:40.801Z,7.70
2018-11-28T23:38:09.710Z,7.70
2018-11-28T23:45:38.656Z,7.80
2018-11-28T23:48:07.535Z,7.80
2018-11-28T23:50:36.428Z,7.90
2018-11-28T23:53:05.294Z,7.90
2018-11-28T23:55:34.191Z,8.00
2018-11-28T23:58:03.142Z,8.00
